Kezdőlap
METAR-TAF:

METAR-TAF

Repülőterek :

Tete, Mozambik

földrajzi szélesség: 16-06S, földrajzi hosszúság: 033-38E, magasság: 160 m

Jelenlegi meteorológiai megfigyelések

A jelentés 1 órával és 4 perccel ezelõtt készült, 00:00 UTC
Délkeleti szél 7 kt
Hőmérséklet 22°C
Páratartalom 78%
Légköri nyomás 1020 hPa
Látótávolság 10 km, vagy több
Kevés felhő 2000 lábon

METAR: FQTT 200000Z 14007KT 9999 FEW020 22/18 Q1020

Idő: 03:04 (01:04 UTC)

Előrejelzés

A jelentés 3 órával és 4 perccel ezelõtt készült, 22:00 UTC
Az előrejelzés 20-én 00 óra UTC és 21-én 00 óra UTC között érvényes
Délkeleti szél 8 kt
Látótávolság 10 km, vagy több
Kevés felhő 2000 lábon
20-én 12 óra UTC és 20-én 14 óra UTC között fokozatosan kialakuló
Dél-délkeleti szél 15 kt
20-én 18 óra UTC és 20-én 20 óra UTC között fokozatosan kialakuló
Keleti szél 8 kt

TAF: FQTT 192200Z 2000/2100 13008KT 9999 FEW020 TX31/2013Z TN22/2002Z BECMG 2012/2014 15015KT BECMG 2018/2020 09008KT

Meteorológiai megfigyelések és előrejelzések több, mint 4000 repülőtéren (METAR és TAF jelentéseket).

A térképen piros és sárga pontok jelzik az elérhető meteorológiai állomásokat.

Mozgassa az egeret a pont fölött, hogy megjelenjen az állomás neve.

Azután kattintson az időjárási megfigyelések és előrejelzések megtekintéséhez.

A térkép megváltoztatása: kattintson a fekete keresztel jelölt zöld gombra ráközelítéshez, a vonallal jelölt zöld gombra távolításhoz, vagy a zöld nyilakra a szomszédos térképek eléréséhez.


METAR-TAF: